Airfield :
LOGIN :

Register | Disclaimer

   EN    FR    IT 

 










Legend :    VFR   Marginal VFR   IFR   Intensive IFR   Very Intensive IFR
Visi :
Ceiling :
>= 8 km
>= 3000ft
5 to 8 km
1000 to 3000 ft
1500m to 5 km
500 to 1000 ft
800 to 1500m
200 to 500 ft
< 800m
< 200 ft
Symbols :   Thunderstorms  Fog  Heavy snow  Heavy precipitations  Wind > 20 kt
SIGMETs :     Misc.  Thunderstorms  Icing  Turbulence  Mountain Waves  Volcanic Ashes







- Airport Elevation : 870 ft
- IATA code : ETZ
- Download approach charts


LFJL - Metz Nancy Lorraine

CURRENT METAR :
  • 211000Z AUTO 29008KT 9999 FEW013 04/01 Q1017 TEMPO OVC011

EXPIRED METARs :
  • 210930Z AUTO 28007KT 9999 FEW012 03/01 Q1017 TEMPO OVC011
  • 210900Z AUTO 28005KT CAVOK 03/01 Q1016 TEMPO OVC011
  • 210830Z AUTO 28004KT 9999 FEW016 02/00 Q1016 TEMPO OVC011
  • 210800Z AUTO 27006KT 9999 FEW016 02/00 Q1015 TEMPO OVC011
  • 210730Z AUTO 28005KT 9999 SCT021 SCT041 02/M00 Q1015 TEMPO OVC011

TAF TAF LFJL
Valid from the 21 at 06:00 until the 22 at 06:00 UTC


210500Z 2106/2206 30008KT 9999 OVC020
PROB40
TEMPO 2106/2112 OVC011
TEMPO 2115/2118 NSC
BECMG 2116/2118 17010KT
BECMG 2119/2121 -RA OVC012
TEMPO 2122/2206 3000 RA OVC005
PROB40
TEMPO 2200/2206 1200 OVC002
No reported NOTAMs for that airfield.
1 SIGMET reported for the Reims FIR (LFEE) :
 
Severe icing
LFEE SIGMET 1 VALID 210900/211300 LFPW
LFEE REIMS FIR/UIR SEV ICE OBS AT 0900Z S OF N4700 AND W OF E00545 FL140/240 MOV E 10KT WKN=



MET'MAP, your aeronautical weather chart ! - Copyright ORBIFLY December 2007 - Disclaimer

ORBIFLY MET'MAP TEAM :

Programming & Development : Alexandra Zaïnal
Concept & Development : Baudouin d'Aumeries
Co-Development & Prog : Marc-Olivier Méhu
Technical & hardware support : Manuel Goepfert

Contact : metmap@orbifly.com




SOURCES & CREDITS :

   NOAA